createdAt,value
2023-03-10T00:00:12.606Z,98304.66
2023-03-10T00:02:39.201Z,98327.97
2023-03-10T00:05:06.107Z,98329.41
2023-03-10T00:07:32.658Z,98320.41
2023-03-10T00:09:59.148Z,98313.88
2023-03-10T00:12:27.819Z,98322.63
2023-03-10T00:14:55.223Z,98309.84
2023-03-10T00:17:21.920Z,98317.69
2023-03-10T00:19:48.392Z,98321.44
2023-03-10T00:22:14.897Z,98318.22
2023-03-10T00:24:41.315Z,98311.75
2023-03-10T00:27:07.840Z,98314.69
2023-03-10T00:29:34.299Z,98304.44
2023-03-10T00:32:00.769Z,98310.44
2023-03-10T00:34:27.217Z,98311.97
2023-03-10T00:36:53.720Z,98308.09
2023-03-10T00:39:20.156Z,98301.91
2023-03-10T00:41:46.667Z,98311.34
2023-03-10T00:44:13.201Z,98339.03
2023-03-10T00:46:40.190Z,98310.97
2023-03-10T00:49:08.308Z,98341.50
2023-03-10T00:51:35.660Z,98339.22
2023-03-10T00:54:03.184Z,98344.44
2023-03-10T00:56:30.368Z,98340.38
2023-03-10T00:58:59.967Z,98341.72
2023-03-10T01:01:39.700Z,98346.09
2023-03-10T01:04:09.404Z,98348.53
2023-03-10T01:06:36.716Z,98344.47
2023-03-10T01:09:05.926Z,98342.41
2023-03-10T01:11:33.248Z,98337.53
2023-03-10T01:14:02.939Z,98339.84
2023-03-10T01:16:30.545Z,98330.13
2023-03-10T01:18:58.676Z,98331.13
2023-03-10T01:21:29.068Z,98331.13
2023-03-10T01:23:55.760Z,98328.84
2023-03-10T01:26:22.280Z,98320.38
2023-03-10T01:28:49.180Z,98316.31
2023-03-10T01:31:17.287Z,98323.97
2023-03-10T01:33:45.619Z,98328.19
2023-03-10T01:36:15.933Z,98333.09
2023-03-10T01:38:43.258Z,98325.13
2023-03-10T01:41:10.145Z,98321.69
2023-03-10T01:43:38.709Z,98325.13
2023-03-10T01:46:24.750Z,98321.06
2023-03-10T01:48:51.552Z,98325.63
2023-03-10T01:51:18.716Z,98318.19
2023-03-10T01:53:45.280Z,98337.09
2023-03-10T01:56:12.007Z,98331.88
2023-03-10T01:58:42.460Z,98336.66
2023-03-10T02:01:11.692Z,98315.47
2023-03-10T02:03:47.032Z,98332.91
2023-03-10T02:06:15.363Z,98343.03
2023-03-10T02:08:45.743Z,98336.38
2023-03-10T02:11:14.320Z,98332.97
2023-03-10T02:13:40.880Z,98342.41
2023-03-10T02:16:07.681Z,98323.56
2023-03-10T02:18:34.266Z,98317.50
2023-03-10T02:21:10.381Z,98311.84
2023-03-10T02:23:55.012Z,98303.09
2023-03-10T02:26:27.179Z,98311.06
2023-03-10T02:28:55.880Z,98311.88
2023-03-10T02:31:22.921Z,98300.66
2023-03-10T02:33:50.602Z,98295.28
2023-03-10T02:36:20.593Z,98301.44
2023-03-10T02:38:47.156Z,98297.88
2023-03-10T02:41:26.794Z,98299.66
2023-03-10T02:43:54.924Z,98296.44
2023-03-10T02:46:22.141Z,98292.19
2023-03-10T02:48:48.670Z,98301.78
2023-03-10T02:51:19.531Z,98312.06
2023-03-10T02:53:45.931Z,98295.94
2023-03-10T02:56:12.763Z,98299.03
2023-03-10T02:58:39.293Z,98288.25
2023-03-10T03:01:06.550Z,98288.91
2023-03-10T03:03:33.647Z,98293.78
2023-03-10T03:06:00.374Z,98279.47
2023-03-10T03:08:27.402Z,98279.19
2023-03-10T03:10:54.388Z,98288.94
2023-03-10T03:13:20.934Z,98279.34
2023-03-10T03:15:48.716Z,98280.31
2023-03-10T03:18:15.145Z,98278.50
2023-03-10T03:20:41.723Z,98273.00
2023-03-10T03:23:08.400Z,98271.66
2023-03-10T03:25:37.461Z,98273.59
2023-03-10T03:28:05.281Z,98279.63
2023-03-10T03:30:32.350Z,98277.66
2023-03-10T03:32:59.060Z,98281.88
2023-03-10T03:35:32.400Z,98276.66
2023-03-10T03:37:59.588Z,98275.84
2023-03-10T03:40:27.766Z,98276.31
2023-03-10T03:42:54.960Z,98274.69
2023-03-10T03:45:26.398Z,98274.53
2023-03-10T03:47:52.935Z,98276.16
2023-03-10T03:50:20.992Z,98265.09
2023-03-10T03:52:47.749Z,98255.13
2023-03-10T03:55:15.948Z,98254.31
2023-03-10T03:57:44.887Z,98259.38
2023-03-10T04:00:15.940Z,98252.69
2023-03-10T04:02:42.713Z,98248.28
2023-03-10T04:05:09.350Z,98254.47
2023-03-10T04:07:37.808Z,98249.47
2023-03-10T04:10:05.150Z,98251.06
2023-03-10T04:12:31.626Z,98247.38
2023-03-10T04:14:58.155Z,98243.44
2023-03-10T04:17:24.592Z,98239.38
2023-03-10T04:20:04.639Z,98237.59
2023-03-10T04:22:33.278Z,98230.56
2023-03-10T04:24:59.938Z,98238.38
2023-03-10T04:27:26.409Z,98239.19
2023-03-10T04:29:52.872Z,98235.97
2023-03-10T04:32:19.400Z,98221.13
2023-03-10T04:34:45.888Z,98227.31
2023-03-10T04:37:12.386Z,98234.66
2023-03-10T04:39:39.687Z,98236.63
2023-03-10T04:42:06.299Z,98224.75
2023-03-10T04:44:32.950Z,98237.97
2023-03-10T04:46:59.864Z,98235.38
2023-03-10T04:49:26.999Z,98236.34
2023-03-10T04:51:53.593Z,98235.69
2023-03-10T04:54:20.032Z,98232.47
2023-03-10T04:56:46.439Z,98233.59
2023-03-10T04:59:12.976Z,98244.03
2023-03-10T05:01:39.482Z,98232.97
2023-03-10T05:04:06.543Z,98227.75
2023-03-10T05:06:33.268Z,98238.19
2023-03-10T05:09:01.136Z,98229.09
2023-03-10T05:11:27.595Z,98218.84
2023-03-10T05:13:54.084Z,98221.44
2023-03-10T05:16:21.688Z,98226.66
2023-03-10T05:18:48.321Z,98222.44
2023-03-10T05:21:15.154Z,98202.41
2023-03-10T05:23:41.845Z,98210.22
2023-03-10T05:26:12.120Z,98202.41
2023-03-10T05:28:38.669Z,98211.03
2023-03-10T05:31:14.930Z,98202.59
2023-03-10T05:33:42.180Z,98210.22
2023-03-10T05:36:11.237Z,98204.38
2023-03-10T05:38:38.085Z,98200.78
2023-03-10T05:41:09.585Z,98212.81
2023-03-10T05:43:37.328Z,98199.63
2023-03-10T05:46:04.486Z,98198.50
2023-03-10T05:48:31.131Z,98188.06
2023-03-10T05:51:07.556Z,98202.56
2023-03-10T05:53:35.708Z,98203.50
2023-03-10T05:56:08.016Z,98215.56
2023-03-10T05:58:35.306Z,98199.94
2023-03-10T06:01:02.230Z,98205.78
2023-03-10T06:03:30.101Z,98203.97
2023-03-10T06:05:57.916Z,98200.56
2023-03-10T06:08:25.455Z,98199.59
2023-03-10T06:10:51.917Z,98200.22
2023-03-10T06:13:21.331Z,98201.03
2023-03-10T06:15:52.853Z,98201.69
2023-03-10T06:18:19.965Z,98210.94
2023-03-10T06:20:48.007Z,98203.13
2023-03-10T06:23:15.885Z,98208.81
2023-03-10T06:25:42.724Z,98214.66
2023-03-10T06:28:10.674Z,98215.44
2023-03-10T06:30:37.487Z,98211.06
2023-03-10T06:33:04.106Z,98214.31
2023-03-10T06:35:31.881Z,98214.31
2023-03-10T06:37:58.325Z,98214.31
2023-03-10T06:40:25.043Z,98224.72
2023-03-10T06:42:51.481Z,98213.31
2023-03-10T06:45:18.113Z,98225.03
2023-03-10T06:47:45.257Z,98209.41
2023-03-10T06:50:13.126Z,98221.44
2023-03-10T06:52:39.698Z,98214.41
2023-03-10T06:55:06.834Z,98218.66
2023-03-10T06:57:33.999Z,98212.47
2023-03-10T07:00:00.550Z,98223.69
2023-03-10T07:02:27.189Z,98213.94
2023-03-10T07:04:53.789Z,98222.22
2023-03-10T07:07:20.337Z,98223.53
2023-03-10T07:09:47.018Z,98232.16
2023-03-10T07:12:13.552Z,98231.19
2023-03-10T07:14:40.040Z,98245.97
2023-03-10T07:17:06.632Z,98242.91
2023-03-10T07:19:33.218Z,98231.38
2023-03-10T07:21:59.698Z,98232.84
2023-03-10T07:24:26.164Z,98228.25
2023-03-10T07:26:53.516Z,98241.59
2023-03-10T07:29:19.979Z,98235.34
2023-03-10T07:31:46.596Z,98237.75
2023-03-10T07:34:13.464Z,98245.34
2023-03-10T07:36:39.876Z,98237.34
2023-03-10T07:39:06.340Z,98236.75
2023-03-10T07:41:32.803Z,98227.66
2023-03-10T07:43:59.407Z,98236.69
2023-03-10T07:46:26.005Z,98238.84
2023-03-10T07:48:52.989Z,98246.28
2023-03-10T07:51:21.002Z,98243.78
2023-03-10T07:53:47.549Z,98253.13
2023-03-10T07:56:14.894Z,98254.13
2023-03-10T07:58:42.040Z,98247.81
2023-03-10T08:01:13.680Z,98255.19
2023-03-10T08:03:40.828Z,98259.16
2023-03-10T08:06:07.531Z,98260.56
2023-03-10T08:08:34.130Z,98264.34
2023-03-10T08:11:01.874Z,98254.38
2023-03-10T08:13:28.605Z,98262.84
2023-03-10T08:15:55.688Z,98260.84
2023-03-10T08:18:23.367Z,98252.81
2023-03-10T08:20:49.863Z,98262.50
2023-03-10T08:23:16.356Z,98257.47
2023-03-10T08:25:42.833Z,98252.53
2023-03-10T08:28:09.285Z,98260.75
2023-03-10T08:30:43.667Z,98266.41
2023-03-10T08:33:19.027Z,98265.88
2023-03-10T08:35:45.499Z,98262.91
2023-03-10T08:38:11.980Z,98264.88
2023-03-10T08:40:38.558Z,98254.44
2023-03-10T08:43:06.226Z,98268.56
2023-03-10T08:45:32.871Z,98268.56
2023-03-10T08:47:59.387Z,98263.19
2023-03-10T08:50:25.909Z,98260.22
2023-03-10T08:52:52.410Z,98258.25
2023-03-10T08:55:18.981Z,98259.59
2023-03-10T08:57:45.463Z,98272.31
2023-03-10T09:00:12.897Z,98270.22
2023-03-10T09:02:40.071Z,98271.78
2023-03-10T09:05:07.071Z,98282.34
2023-03-10T09:07:33.627Z,98271.47
2023-03-10T09:10:00.089Z,98272.50
2023-03-10T09:12:31.427Z,98279.50
2023-03-10T09:15:01.659Z,98276.63
2023-03-10T09:17:28.123Z,98277.28
2023-03-10T09:19:54.556Z,98276.91
2023-03-10T09:22:21.015Z,98288.66
2023-03-10T09:24:47.468Z,98280.28
2023-03-10T09:27:13.923Z,98280.19
2023-03-10T09:29:43.374Z,98289.19
2023-03-10T09:32:10.553Z,98267.09
2023-03-10T09:34:37.090Z,98287.13
2023-03-10T09:37:03.649Z,98275.63
2023-03-10T09:39:30.123Z,98282.72
2023-03-10T09:41:56.609Z,98276.84
2023-03-10T09:44:38.755Z,98279.38
2023-03-10T09:47:19.645Z,98272.03
2023-03-10T09:50:17.796Z,98274.44
2023-03-10T09:53:14.430Z,98270.91
2023-03-10T09:55:47.843Z,98273.75
2023-03-10T09:58:32.478Z,98260.56
2023-03-10T10:01:00.388Z,98272.38
2023-03-10T10:03:50.132Z,98273.25
2023-03-10T10:06:24.038Z,98270.81
2023-03-10T10:09:27.980Z,98266.66
2023-03-10T10:11:54.526Z,98264.78
2023-03-10T10:14:30.535Z,98255.53
2023-03-10T10:17:16.188Z,98265.06
2023-03-10T10:19:45.840Z,98265.34
2023-03-10T10:22:48.069Z,98282.72
2023-03-10T10:25:25.326Z,98278.88
2023-03-10T10:27:55.235Z,98287.53
2023-03-10T10:30:36.063Z,98285.34
2023-03-10T10:33:05.786Z,98283.25
2023-03-10T10:35:39.222Z,98292.03
2023-03-10T10:38:11.491Z,98295.75
2023-03-10T10:41:07.316Z,98292.69
2023-03-10T10:43:43.496Z,98303.81
2023-03-10T10:46:12.461Z,98311.09
2023-03-10T10:48:46.107Z,98300.84
2023-03-10T10:51:29.066Z,98295.38
2023-03-10T10:54:01.808Z,98286.19
2023-03-10T10:56:29.036Z,98290.56
2023-03-10T10:59:07.891Z,98291.06
2023-03-10T11:01:53.114Z,98294.28
2023-03-10T11:04:20.876Z,98290.41
2023-03-10T11:06:48.212Z,98285.97
2023-03-10T11:09:18.766Z,98286.75
2023-03-10T11:12:04.680Z,98275.34
2023-03-10T11:15:01.873Z,98273.16
2023-03-10T11:17:40.558Z,98285.41
2023-03-10T11:20:25.497Z,98279.56
2023-03-10T11:23:03.825Z,98282.06
2023-03-10T11:25:36.968Z,98275.94
2023-03-10T11:28:36.838Z,98289.13
2023-03-10T11:31:31.298Z,98295.00
2023-03-10T11:34:09.609Z,98290.19
2023-03-10T11:37:14.362Z,98292.69
2023-03-10T11:39:41.626Z,98295.19
2023-03-10T11:42:14.843Z,98286.69
2023-03-10T11:45:00.253Z,98281.78
2023-03-10T11:47:45.943Z,98278.44
2023-03-10T11:50:20.965Z,98271.22
2023-03-10T11:52:49.588Z,98263.38
2023-03-10T11:55:21.535Z,98254.63
2023-03-10T11:57:53.110Z,98258.84
2023-03-10T12:00:29.194Z,98257.50
2023-03-10T12:03:19.797Z,98248.69
2023-03-10T12:05:54.779Z,98248.78
2023-03-10T12:08:23.666Z,98232.63
2023-03-10T12:10:51.060Z,98239.47
2023-03-10T12:13:32.958Z,98235.47
2023-03-10T12:16:02.476Z,98236.03
2023-03-10T12:18:29.554Z,98232.44
2023-03-10T12:21:22.432Z,98230.06
2023-03-10T12:23:54.378Z,98231.84
2023-03-10T12:27:03.870Z,98213.19
2023-03-10T12:29:36.894Z,98204.97
2023-03-10T12:32:03.787Z,98215.88
2023-03-10T12:34:32.342Z,98221.63
2023-03-10T12:37:09.008Z,98221.31
2023-03-10T12:39:38.637Z,98212.03
2023-03-10T12:42:26.881Z,98214.44
2023-03-10T12:44:55.923Z,98208.09
2023-03-10T12:47:24.333Z,98206.84
2023-03-10T12:49:57.323Z,98195.72
2023-03-10T12:52:53.735Z,98193.97
2023-03-10T12:55:24.184Z,98191.56
2023-03-10T12:58:00.154Z,98172.66
2023-03-10T13:00:43.289Z,98186.22
2023-03-10T13:03:09.753Z,98188.09
2023-03-10T13:05:41.217Z,98186.75
2023-03-10T13:08:22.501Z,98189.03
2023-03-10T13:10:54.582Z,98207.88
2023-03-10T13:13:21.515Z,98202.69
2023-03-10T13:16:03.607Z,98193.09
2023-03-10T13:18:30.680Z,98187.50
2023-03-10T13:21:01.522Z,98181.47
2023-03-10T13:23:37.200Z,98181.31
2023-03-10T13:26:15.969Z,98171.34
2023-03-10T13:29:00.804Z,98173.97
2023-03-10T13:31:28.618Z,98170.38
2023-03-10T13:33:56.466Z,98186.00
2023-03-10T13:36:36.886Z,98194.69
2023-03-10T13:39:15.702Z,98205.44
2023-03-10T13:41:46.536Z,98210.91
2023-03-10T13:44:21.926Z,98230.59
2023-03-10T13:46:56.932Z,98224.00
2023-03-10T13:49:27.687Z,98238.31
2023-03-10T13:52:01.529Z,98241.44
2023-03-10T13:54:32.432Z,98251.22
2023-03-10T13:57:02.910Z,98253.03
2023-03-10T13:59:31.708Z,98272.38
2023-03-10T14:02:00.393Z,98277.25
2023-03-10T14:04:43.976Z,98292.88
2023-03-10T14:07:18.528Z,98301.84
2023-03-10T14:09:47.662Z,98323.63
2023-03-10T14:12:15.479Z,98305.88
2023-03-10T14:14:42.359Z,98343.84
2023-03-10T14:17:29.740Z,98317.16
2023-03-10T14:19:56.686Z,98326.09
2023-03-10T14:22:41.409Z,98372.00
2023-03-10T14:25:20.446Z,98312.38
2023-03-10T14:27:50.569Z,98340.44
2023-03-10T14:30:29.484Z,98354.25
2023-03-10T14:32:57.413Z,98342.44
2023-03-10T14:35:25.477Z,98356.72
2023-03-10T14:37:53.117Z,98349.06
2023-03-10T14:40:21.575Z,98356.22
2023-03-10T14:42:50.425Z,98341.47
2023-03-10T14:45:39.559Z,98354.56
2023-03-10T14:48:14.684Z,98338.97
2023-03-10T14:50:41.379Z,98338.63
2023-03-10T14:53:12.968Z,98352.41
2023-03-10T14:55:41.758Z,98356.81
2023-03-10T14:58:14.119Z,98362.00
2023-03-10T15:00:40.568Z,98369.78
2023-03-10T15:03:07.028Z,98358.22
2023-03-10T15:05:47.481Z,98376.84
2023-03-10T15:08:15.140Z,98402.34
2023-03-10T15:10:43.732Z,98386.38
2023-03-10T15:13:13.719Z,98379.06
2023-03-10T15:15:42.660Z,98406.78
2023-03-10T15:18:13.674Z,98381.03
2023-03-10T15:20:40.441Z,98379.28
2023-03-10T15:23:07.542Z,98380.78
2023-03-10T15:25:34.043Z,98366.19
2023-03-10T15:28:00.558Z,98365.81
2023-03-10T15:30:30.688Z,98360.28
2023-03-10T15:32:57.290Z,98359.31
2023-03-10T15:35:24.446Z,98361.38
2023-03-10T15:37:52.020Z,98359.75
2023-03-10T15:40:22.263Z,98369.28
2023-03-10T15:42:49.700Z,98364.50
2023-03-10T15:45:18.382Z,98367.53
2023-03-10T15:47:46.207Z,98360.09
2023-03-10T15:50:14.206Z,98381.16
2023-03-10T15:52:46.042Z,98392.63
2023-03-10T15:55:14.872Z,98379.81
2023-03-10T15:57:41.541Z,98392.69
2023-03-10T16:00:09.220Z,98407.56
2023-03-10T16:02:35.700Z,98404.84
2023-03-10T16:05:02.312Z,98414.03
2023-03-10T16:07:28.819Z,98484.72
2023-03-10T16:09:55.521Z,98510.31
2023-03-10T16:12:23.369Z,98527.41
2023-03-10T16:14:50.104Z,98543.69
2023-03-10T16:17:16.841Z,98562.50
2023-03-10T16:19:43.304Z,98574.06
2023-03-10T16:22:10.428Z,98601.44
2023-03-10T16:24:36.971Z,98615.13
2023-03-10T16:27:03.688Z,98627.28
2023-03-10T16:29:30.284Z,98647.09
2023-03-10T16:31:56.788Z,98692.09
2023-03-10T16:34:23.395Z,98716.91
2023-03-10T16:36:50.410Z,98737.84
2023-03-10T16:39:17.938Z,98760.88
2023-03-10T16:41:44.582Z,98791.97
2023-03-10T16:44:13.059Z,98833.09
2023-03-10T16:46:39.820Z,98863.34
2023-03-10T16:49:07.238Z,98889.63
2023-03-10T16:51:35.260Z,98920.50
2023-03-10T16:54:04.549Z,98932.28
2023-03-10T16:56:32.621Z,98957.16
2023-03-10T16:58:59.088Z,98958.22
2023-03-10T17:01:25.603Z,98974.50
2023-03-10T17:03:54.214Z,98994.09
2023-03-10T17:06:24.919Z,98999.88
2023-03-10T17:08:52.862Z,99006.88
2023-03-10T17:11:25.732Z,99050.72
2023-03-10T17:13:54.294Z,99057.94
2023-03-10T17:16:23.550Z,99077.06
2023-03-10T17:18:51.022Z,99090.31
2023-03-10T17:21:20.578Z,99098.66
2023-03-10T17:23:47.730Z,99112.09
2023-03-10T17:26:15.187Z,99127.66
2023-03-10T17:28:43.368Z,99133.59
2023-03-10T17:31:12.916Z,99170.75
2023-03-10T17:33:39.939Z,99175.06
2023-03-10T17:36:12.310Z,99187.09
2023-03-10T17:38:40.871Z,99216.41
2023-03-10T17:41:10.077Z,99221.44
2023-03-10T17:43:37.185Z,99239.34
2023-03-10T17:46:14.575Z,99258.91
2023-03-10T17:48:41.497Z,99269.94
2023-03-10T17:51:08.788Z,99291.44
2023-03-10T17:53:35.463Z,99296.38
2023-03-10T17:56:06.316Z,99325.44
2023-03-10T17:58:33.560Z,99327.72
2023-03-10T18:01:16.592Z,99334.78
2023-03-10T18:03:43.176Z,99357.75
2023-03-10T18:06:18.120Z,99373.75
2023-03-10T18:08:45.285Z,99378.88
2023-03-10T18:11:12.188Z,99383.03
2023-03-10T18:13:39.136Z,99415.91
2023-03-10T18:16:07.914Z,99421.88
2023-03-10T18:18:34.410Z,99419.47
2023-03-10T18:21:00.889Z,99440.63
2023-03-10T18:23:27.377Z,99443.19
2023-03-10T18:25:53.908Z,99456.78
2023-03-10T18:28:20.705Z,99464.03
2023-03-10T18:30:49.448Z,99490.59
2023-03-10T18:33:16.138Z,99506.78
2023-03-10T18:35:44.791Z,99499.97
2023-03-10T18:38:13.448Z,99524.66
2023-03-10T18:40:40.865Z,99536.72
2023-03-10T18:43:07.388Z,99524.78
2023-03-10T18:45:33.854Z,99529.91
2023-03-10T18:48:00.445Z,99540.47
2023-03-10T18:50:26.940Z,99554.16
2023-03-10T18:52:53.459Z,99557.28
2023-03-10T18:55:19.896Z,99565.59
2023-03-10T18:57:46.412Z,99569.56
2023-03-10T19:00:14.815Z,99579.06
2023-03-10T19:02:44.550Z,99581.53
2023-03-10T19:05:15.343Z,99599.78
2023-03-10T19:07:42.063Z,99611.75
2023-03-10T19:10:11.586Z,99610.72
2023-03-10T19:12:38.159Z,99615.06
2023-03-10T19:15:08.867Z,99621.78
2023-03-10T19:17:37.559Z,99624.25
2023-03-10T19:20:07.343Z,99639.59
2023-03-10T19:22:34.945Z,99628.41
2023-03-10T19:25:03.524Z,99637.97
2023-03-10T19:27:30.649Z,99629.50
2023-03-10T19:29:57.214Z,99643.09
2023-03-10T19:32:24.270Z,99645.50
2023-03-10T19:34:50.892Z,99663.50
2023-03-10T19:37:17.509Z,99670.31
2023-03-10T19:39:43.963Z,99688.41
2023-03-10T19:42:10.493Z,99688.16
2023-03-10T19:44:40.103Z,99706.16
2023-03-10T19:47:06.721Z,99714.22
2023-03-10T19:49:34.218Z,99723.59
2023-03-10T19:52:01.647Z,99726.16
2023-03-10T19:54:28.162Z,99725.31
2023-03-10T19:56:54.661Z,99726.34
2023-03-10T19:59:21.207Z,99730.81
2023-03-10T20:01:49.255Z,99749.38
2023-03-10T20:04:15.949Z,99746.13
2023-03-10T20:06:42.429Z,99751.38
2023-03-10T20:09:10.384Z,99749.97
2023-03-10T20:11:41.067Z,99759.09
2023-03-10T20:14:08.439Z,99754.88
2023-03-10T20:16:35.465Z,99748.06
2023-03-10T20:19:02.078Z,99752.38
2023-03-10T20:21:29.318Z,99761.69
2023-03-10T20:23:56.409Z,99765.00
2023-03-10T20:26:23.448Z,99775.94
2023-03-10T20:28:50.543Z,99773.88
2023-03-10T20:31:20.160Z,99778.59
2023-03-10T20:33:47.732Z,99796.66
2023-03-10T20:36:15.842Z,99798.25
2023-03-10T20:38:44.136Z,99805.22
2023-03-10T20:41:15.692Z,99802.72
2023-03-10T20:43:43.022Z,99824.28
2023-03-10T20:46:09.995Z,99818.22
2023-03-10T20:48:36.640Z,99825.19
2023-03-10T20:51:03.628Z,99840.63
2023-03-10T20:53:33.296Z,99838.22
2023-03-10T20:56:00.632Z,99842.59
2023-03-10T20:58:27.890Z,99836.09
2023-03-10T21:00:54.413Z,99862.56
2023-03-10T21:03:23.831Z,99865.13
2023-03-10T21:05:50.278Z,99862.41
2023-03-10T21:08:16.782Z,99871.19
2023-03-10T21:10:44.916Z,99870.44
2023-03-10T21:13:12.030Z,99886.91
2023-03-10T21:15:39.741Z,99877.47
2023-03-10T21:18:06.432Z,99892.00
2023-03-10T21:20:33.815Z,99891.81
2023-03-10T21:23:00.472Z,99898.72
2023-03-10T21:25:28.304Z,99897.66
2023-03-10T21:27:58.683Z,99898.97
2023-03-10T21:30:31.638Z,99905.00
2023-03-10T21:32:58.684Z,99902.50
2023-03-10T21:35:26.863Z,99911.13
2023-03-10T21:37:55.377Z,99910.28
2023-03-10T21:40:24.300Z,99912.78
2023-03-10T21:42:51.144Z,99922.69
2023-03-10T21:45:22.779Z,99929.34
2023-03-10T21:47:49.470Z,99939.63
2023-03-10T21:50:16.649Z,99936.97
2023-03-10T21:52:43.652Z,99932.91
2023-03-10T21:55:18.470Z,99956.03
2023-03-10T21:57:44.984Z,99962.75
2023-03-10T22:00:12.852Z,99966.31
2023-03-10T22:02:39.399Z,99980.59
2023-03-10T22:05:06.564Z,99973.03
2023-03-10T22:07:33.588Z,99979.16
2023-03-10T22:10:00.143Z,99985.81
2023-03-10T22:12:26.641Z,99993.38
2023-03-10T22:14:56.362Z,99996.94
2023-03-10T22:17:24.713Z,99997.63
2023-03-10T22:19:54.595Z,99999.22
2023-03-10T22:22:22.300Z,99999.50
2023-03-10T22:24:49.273Z,100008.59
2023-03-10T22:27:15.765Z,100010.63
2023-03-10T22:29:42.291Z,100014.88
2023-03-10T22:32:08.853Z,100024.84
2023-03-10T22:34:35.416Z,100027.50
2023-03-10T22:37:01.856Z,100033.56
2023-03-10T22:39:28.370Z,100042.00
2023-03-10T22:41:54.809Z,100049.56
2023-03-10T22:44:21.393Z,100044.44
2023-03-10T22:46:48.132Z,100047.84
2023-03-10T22:49:14.819Z,100045.13
2023-03-10T22:51:41.861Z,100050.31
2023-03-10T22:54:08.312Z,100056.16
2023-03-10T22:56:34.753Z,100061.25
2023-03-10T22:59:03.925Z,100066.44
2023-03-10T23:01:30.564Z,100068.03
2023-03-10T23:03:57.384Z,100070.41
2023-03-10T23:06:26.270Z,100072.00
2023-03-10T23:08:52.860Z,100068.56
2023-03-10T23:11:19.509Z,100062.69
2023-03-10T23:13:46.076Z,100072.16
2023-03-10T23:16:12.598Z,100074.63
2023-03-10T23:18:39.229Z,100065.25
2023-03-10T23:21:06.932Z,100058.38
2023-03-10T23:23:33.686Z,100071.25
2023-03-10T23:26:00.271Z,100087.50
2023-03-10T23:28:27.190Z,100087.38
2023-03-10T23:30:54.329Z,100087.41
2023-03-10T23:33:22.824Z,100097.56
2023-03-10T23:35:55.269Z,100096.75
2023-03-10T23:38:24.531Z,100100.13
2023-03-10T23:40:52.557Z,100116.53
2023-03-10T23:43:19.384Z,100123.28
2023-03-10T23:45:46.256Z,100124.03
2023-03-10T23:48:16.144Z,100132.44
2023-03-10T23:50:44.952Z,100133.28
2023-03-10T23:53:13.067Z,100141.81
2023-03-10T23:55:43.516Z,100143.56
2023-03-10T23:58:10.743Z,100155.38
